Time;durP1;ratioP1;P1;durP2;ratioP2;P2;SDS_P1;SDS_P2;PMS_P1;PMS_P2;Temp;Humidity;BMP_temperature;BMP_pressure;BME280_temperature;BME280_humidity;BME280_pressure;Samples;Min_cycle;Max_cycle;Signal;HPM_P1;HPM_P2
2022/05/29 00:08:01;;;;;;;0.82;0.30;;;8.60;99.90;;;;;;21045648;28;20109;-47
2022/05/29 00:18:03;;;;;;;0.20;0.20;;;8.60;99.90;;;;;;21020142;28;20097;-44
2022/05/29 00:28:06;;;;;;;4.10;0.35;;;8.40;99.90;;;;;;21050297;28;20028;-53
2022/05/29 00:38:13;;;;;;;1.08;0.30;;;8.20;99.90;;;;;;21041214;28;20501;-49
2022/05/29 00:48:19;;;;;;;3.08;0.50;;;8.10;99.90;;;;;;21034247;28;20115;-43
2022/05/29 00:58:27;;;;;;;0.25;0.25;;;8.10;99.90;;;;;;21047221;28;20381;-50
2022/05/29 01:08:33;;;;;;;0.80;0.30;;;8.00;99.90;;;;;;21057259;28;20044;-50
2022/05/29 01:18:46;;;;;;;1.83;0.52;;;8.00;99.90;;;;;;21025744;28;20095;-43
2022/05/29 01:29:02;;;;;;;0.68;0.38;;;8.00;99.90;;;;;;21052301;28;20036;-49
2022/05/29 01:39:19;;;;;;;0.82;0.30;;;8.00;99.90;;;;;;21045137;28;20052;-44
2022/05/29 01:49:40;;;;;;;1.03;0.30;;;7.90;99.90;;;;;;21045709;28;20128;-44
2022/05/29 02:00:02;;;;;;;0.60;0.30;;;8.00;99.90;;;;;;21050847;28;20032;-45
2022/05/29 02:10:25;;;;;;;0.63;0.20;;;8.00;99.90;;;;;;21041307;28;20315;-45
2022/05/29 02:20:34;;;;;;;1.58;0.30;;;7.90;99.90;;;;;;21040833;28;20382;-44
2022/05/29 02:31:35;;;;;;;1.02;0.32;;;7.90;99.90;;;;;;21030488;28;20036;-44
2022/05/29 02:41:56;;;;;;;;;;;7.90;99.90;;;;;;20775218;28;20457;-44
2022/05/29 02:52:14;;;;;;;0.20;0.17;;;7.90;99.90;;;;;;20807267;28;19952;-46
2022/05/29 03:02:20;;;;;;;0.30;0.13;;;7.80;99.90;;;;;;20790266;28;20049;-46
2022/05/29 03:12:25;;;;;;;0.57;0.15;;;7.70;99.90;;;;;;20938105;28;20041;-54
2022/05/29 03:22:49;;;;;;;0.22;0.10;;;7.60;99.90;;;;;;21049417;28;20036;-46
2022/05/29 03:32:58;;;;;;;1.65;0.30;;;7.60;99.90;;;;;;21045125;28;20043;-46
2022/05/29 03:43:00;;;;;;;0.85;0.40;;;7.50;99.90;;;;;;21006322;28;20049;-45
2022/05/29 03:53:04;;;;;;;0.32;0.32;;;7.40;99.90;;;;;;20961735;28;20435;-57
2022/05/29 04:03:08;;;;;;;0.88;0.68;;;7.30;99.90;;;;;;20961100;28;20097;-50
2022/05/29 04:13:11;;;;;;;2.38;0.65;;;7.30;99.90;;;;;;20960306;28;20044;-53
2022/05/29 04:23:14;;;;;;;1.15;0.70;;;7.20;99.90;;;;;;20960531;28;20393;-46
2022/05/29 04:33:19;;;;;;;1.80;0.80;;;7.20;99.90;;;;;;20967955;28;20036;-52
2022/05/29 04:43:23;;;;;;;1.13;0.80;;;7.20;99.90;;;;;;20998477;28;20113;-46
2022/05/29 04:53:28;;;;;;;1.98;0.82;;;7.30;99.90;;;;;;21032170;28;20040;-55
2022/05/29 05:03:31;;;;;;;3.75;0.60;;;7.30;99.90;;;;;;21034197;28;20032;-46
2022/05/29 05:13:34;;;;;;;1.15;0.70;;;7.50;99.90;;;;;;21034080;28;20113;-46
2022/05/29 05:23:37;;;;;;;1.35;0.80;;;7.50;99.90;;;;;;21046963;28;20417;-49
2022/05/29 05:33:39;;;;;;;1.60;1.08;;;7.40;99.90;;;;;;21030878;28;20044;-56
2022/05/29 05:43:42;;;;;;;1.60;1.17;;;7.30;99.90;;;;;;21038015;28;20048;-46
2022/05/29 05:53:45;;;;;;;2.00;0.90;;;7.40;99.90;;;;;;21034611;28;20044;-46
2022/05/29 06:03:47;;;;;;;2.60;1.00;;;7.50;99.90;;;;;;21049986;28;20443;-58
2022/05/29 06:13:51;;;;;;;2.28;1.00;;;7.60;99.90;;;;;;21043398;28;20443;-58
2022/05/29 06:23:53;;;;;;;0.95;0.75;;;7.60;99.90;;;;;;21032015;28;20366;-47
2022/05/29 06:33:56;;;;;;;1.80;0.70;;;7.80;99.90;;;;;;21026752;28;20036;-59
2022/05/29 06:43:59;;;;;;;1.00;0.70;;;8.00;99.90;;;;;;21048531;28;20090;-46
2022/05/29 06:54:04;;;;;;;1.60;0.70;;;8.20;99.90;;;;;;21049648;28;20048;-59
2022/05/29 07:14:52;;;;;;;1.95;0.75;;;8.10;99.90;;;;;;21052529;28;20089;-47
2022/05/29 07:24:54;;;;;;;1.92;0.90;;;8.10;99.90;;;;;;21043032;28;20401;-48
2022/05/29 07:34:59;;;;;;;1.83;0.80;;;8.30;99.90;;;;;;21033706;28;20093;-56
2022/05/29 07:45:03;;;;;;;0.57;0.40;;;8.60;99.90;;;;;;21043746;28;20405;-59
2022/05/29 07:55:06;;;;;;;3.33;0.70;;;8.90;99.90;;;;;;21062230;28;20066;-59
2022/05/29 08:05:11;;;;;;;2.72;0.82;;;9.10;99.90;;;;;;21058129;28;20044;-47
2022/05/29 08:15:15;;;;;;;1.95;0.85;;;9.10;99.90;;;;;;21069130;28;20093;-46
2022/05/29 08:35:40;;;;;;;;;;;8.60;99.90;;;;;;21064345;28;20074;-60
2022/05/29 08:45:45;;;;;;;2.33;1.05;;;8.50;99.90;;;;;;21056961;28;19938;-46
2022/05/29 08:56:02;;;;;;;1.63;0.95;;;8.60;99.90;;;;;;21060603;28;20452;-47
2022/05/29 09:06:23;;;;;;;1.05;0.68;;;8.70;99.90;;;;;;21072741;28;20028;-48
2022/05/29 09:16:40;;;;;;;0.98;0.82;;;8.80;99.90;;;;;;21067596;28;20036;-51
2022/05/29 09:26:45;;;;;;;2.65;0.80;;;9.00;99.90;;;;;;21070183;28;20040;-50
2022/05/29 09:37:23;;;;;;;2.05;0.93;;;9.00;99.90;;;;;;21065038;28;20492;-50
2022/05/29 09:58:13;;;;;;;1.75;1.02;;;9.70;99.90;;;;;;21044575;28;20131;-59
2022/05/29 10:08:25;;;;;;;1.00;0.70;;;9.90;99.90;;;;;;21062514;28;20093;-50
2022/05/29 10:18:36;;;;;;;1.25;0.93;;;10.00;99.90;;;;;;21041537;28;20101;-52
2022/05/29 10:28:41;;;;;;;4.18;0.90;;;10.10;99.90;;;;;;21047966;28;20036;-50
2022/05/29 10:38:46;;;;;;;4.70;0.75;;;10.40;99.90;;;;;;21056761;28;20052;-52
2022/05/29 10:49:07;;;;;;;1.75;0.70;;;11.30;99.90;;;;;;21031897;28;20115;-61
2022/05/29 10:59:34;;;;;;;1.25;0.50;;;11.60;99.90;;;;;;21055223;28;20044;-61
2022/05/29 11:10:12;;;;;;;1.50;0.73;;;11.30;99.90;;;;;;21043505;28;20536;-55
2022/05/29 11:21:02;;;;;;;5.35;0.65;;;11.90;99.90;;;;;;21054667;28;20526;-62
2022/05/29 11:31:31;;;;;;;2.65;1.17;;;12.00;99.90;;;;;;20714915;28;20050;-55
2022/05/29 11:41:51;;;;;;;1.70;1.30;;;11.80;99.90;;;;;;20774770;28;20095;-55
2022/05/29 11:52:01;;;;;;;2.88;1.00;;;11.70;99.90;;;;;;20785810;28;20077;-55
2022/05/29 12:02:23;;;;;;;5.22;2.10;;;11.90;99.90;;;;;;20872723;28;20040;-62
2022/05/29 12:13:01;;;;;;;4.63;0.90;;;11.70;99.90;;;;;;21037308;28;20040;-57
2022/05/29 12:23:35;;;;;;;2.05;1.02;;;12.00;99.90;;;;;;20720614;28;20065;-61
2022/05/29 12:33:44;;;;;;;1.63;1.27;;;11.40;99.90;;;;;;20659697;28;20070;-60
2022/05/29 12:44:03;;;;;;;2.90;1.10;;;10.60;99.90;;;;;;20644374;28;20157;-61
2022/05/29 12:54:20;;;;;;;2.47;1.80;;;9.90;99.90;;;;;;20684425;28;20440;-56
2022/05/29 13:04:30;;;;;;;4.20;2.25;;;9.80;99.90;;;;;;20865806;28;20482;-61
2022/05/29 13:14:35;;;;;;;;;;;9.20;99.90;;;;;;20973044;28;20062;-56
2022/05/29 13:24:46;;;;;;;3.30;1.80;;;9.10;99.90;;;;;;20969413;28;19963;-60
2022/05/29 13:35:09;;;;;;;2.00;1.80;;;9.30;99.90;;;;;;20915033;28;20090;-55
2022/05/29 13:45:24;;;;;;;3.70;1.50;;;9.20;99.90;;;;;;20790457;28;20167;-61
2022/05/29 13:55:53;;;;;;;2.85;1.05;;;9.40;99.90;;;;;;20792314;28;20073;-58
2022/05/29 14:05:57;;;;;;;2.63;1.08;;;9.60;99.90;;;;;;20810763;28;20131;-57
2022/05/29 14:16:26;;;;;;;2.67;0.82;;;9.80;99.90;;;;;;20857828;28;20052;-60
2022/05/29 14:27:02;;;;;;;1.70;0.77;;;10.20;99.90;;;;;;21029293;28;20436;-61
2022/05/29 14:37:26;;;;;;;2.88;0.50;;;10.40;99.90;;;;;;21029846;28;20039;-60
2022/05/29 14:47:43;;;;;;;0.60;0.28;;;9.70;99.90;;;;;;21034939;28;20113;-56
2022/05/29 14:57:57;;;;;;;0.65;0.30;;;9.50;99.90;;;;;;21048283;28;20036;-60
2022/05/29 15:18:31;;;;;;;1.85;0.20;;;9.70;99.90;;;;;;21063007;28;20047;-61
2022/05/29 15:28:38;;;;;;;1.48;0.20;;;10.00;99.90;;;;;;21060316;28;20093;-56
2022/05/29 15:39:01;;;;;;;1.85;0.35;;;10.10;99.90;;;;;;21062479;28;20044;-56
2022/05/29 15:49:44;;;;;;;0.13;0.10;;;10.00;99.90;;;;;;21033823;28;20125;-55
2022/05/29 15:59:50;;;;;;;1.75;0.30;;;10.10;99.90;;;;;;21026843;28;20031;-57
2022/05/29 16:09:59;;;;;;;0.38;0.25;;;10.30;99.90;;;;;;20963986;28;20049;-60
2022/05/29 16:20:06;;;;;;;0.20;0.10;;;9.80;99.90;;;;;;20868667;28;20961;-57
2022/05/29 16:30:31;;;;;;;2.22;0.60;;;9.50;99.90;;;;;;20879171;28;20545;-56
2022/05/29 16:51:09;;;;;;;0.80;0.25;;;9.40;99.90;;;;;;20972481;28;20086;-55
2022/05/29 17:01:16;;;;;;;0.20;0.20;;;9.20;99.90;;;;;;21034561;28;20101;-57
2022/05/29 17:11:23;;;;;;;0.50;0.10;;;9.00;99.90;;;;;;21039873;28;20032;-59
2022/05/29 17:21:33;;;;;;;2.28;0.20;;;8.70;99.90;;;;;;21072649;28;20090;-56
2022/05/29 17:31:38;;;;;;;0.50;0.20;;;8.80;99.90;;;;;;21053136;28;20410;-60
2022/05/29 17:41:41;;;;;;;0.70;0.20;;;8.90;99.90;;;;;;21039632;28;20316;-57
2022/05/29 17:51:59;;;;;;;1.55;0.20;;;9.10;99.90;;;;;;21039141;28;20447;-60
2022/05/29 18:02:02;;;;;;;1.27;0.10;;;9.10;99.90;;;;;;21043639;28;20435;-60
2022/05/29 18:12:09;;;;;;;0.45;0.32;;;9.10;99.90;;;;;;21062769;28;20086;-58
2022/05/29 18:22:12;;;;;;;2.05;0.35;;;8.90;99.90;;;;;;21043846;28;20040;-59
2022/05/29 18:32:16;;;;;;;0.40;0.20;;;8.30;99.90;;;;;;21022577;28;20090;-57
2022/05/29 18:42:19;;;;;;;0.63;0.22;;;7.60;99.90;;;;;;21046152;28;20069;-58
2022/05/29 18:52:22;;;;;;;4.57;0.30;;;6.80;99.90;;;;;;21038220;28;20460;-58
2022/05/29 19:02:25;;;;;;;0.80;0.30;;;6.00;99.90;;;;;;21025443;28;20089;-55
2022/05/29 19:12:29;;;;;;;1.25;0.38;;;5.50;99.90;;;;;;21023236;28;20463;-56
2022/05/29 19:22:31;;;;;;;0.95;0.30;;;5.10;99.90;;;;;;21042140;28;20028;-58
2022/05/29 19:32:35;;;;;;;1.60;0.40;;;4.80;99.90;;;;;;21045899;28;20032;-59
2022/05/29 19:42:39;;;;;;;1.90;0.47;;;4.70;99.90;;;;;;21031804;28;20044;-59
2022/05/29 19:52:43;;;;;;;1.83;0.30;;;4.80;99.90;;;;;;21046969;28;20452;-54
2022/05/29 20:02:46;;;;;;;2.15;0.40;;;4.60;99.90;;;;;;21064281;28;20028;-58
2022/05/29 20:12:49;;;;;;;1.00;0.30;;;4.40;99.90;;;;;;21061820;28;20032;-58
2022/05/29 20:22:51;;;;;;;1.38;0.43;;;4.40;99.90;;;;;;21059513;28;20044;-54
2022/05/29 20:32:54;;;;;;;1.23;0.32;;;4.40;99.90;;;;;;21065088;28;20066;-56
2022/05/29 20:42:57;;;;;;;0.57;0.32;;;4.20;99.90;;;;;;21068238;28;20093;-56
2022/05/29 20:53:02;;;;;;;1.38;0.50;;;4.00;99.90;;;;;;21077364;28;20040;-55
2022/05/29 21:03:05;;;;;;;1.05;0.40;;;4.10;99.90;;;;;;21086192;28;20538;-56
2022/05/29 21:13:08;;;;;;;3.92;0.40;;;4.40;99.90;;;;;;21080944;28;20044;-57
2022/05/29 21:23:11;;;;;;;0.52;0.40;;;4.60;99.90;;;;;;21056869;28;20093;-56
2022/05/29 21:33:14;;;;;;;0.40;0.22;;;4.50;99.90;;;;;;21058780;28;20085;-57
2022/05/29 21:43:17;;;;;;;2.35;0.52;;;4.20;99.90;;;;;;21062824;28;20070;-54
2022/05/29 21:53:23;;;;;;;1.80;0.35;;;4.10;99.90;;;;;;21021724;28;20117;-55
2022/05/29 22:03:28;;;;;;;0.82;0.47;;;4.10;99.90;;;;;;21024892;28;20086;-56
2022/05/29 22:13:31;;;;;;;0.50;0.30;;;4.40;99.90;;;;;;21046333;28;20072;-56
2022/05/29 22:23:35;;;;;;;0.85;0.35;;;4.70;99.90;;;;;;21059220;28;20036;-54
2022/05/29 22:33:45;;;;;;;0.70;0.45;;;5.00;99.90;;;;;;21042934;28;20074;-55
2022/05/29 22:43:47;;;;;;;0.75;0.40;;;5.20;99.90;;;;;;21048252;28;20048;-56
2022/05/29 22:54:03;;;;;;;1.17;0.40;;;5.40;99.90;;;;;;21028215;28;20036;-54
2022/05/29 23:04:26;;;;;;;0.77;0.30;;;5.50;99.90;;;;;;21058151;28;20036;-56
2022/05/29 23:14:29;;;;;;;0.75;0.40;;;5.50;99.90;;;;;;21033072;28;20058;-55
2022/05/29 23:24:38;;;;;;;1.63;0.40;;;5.60;99.90;;;;;;21040446;28;20036;-55
2022/05/29 23:34:42;;;;;;;0.65;0.40;;;5.70;99.90;;;;;;21023803;28;20426;-54
2022/05/29 23:44:45;;;;;;;0.25;0.25;;;6.10;99.90;;;;;;21054451;28;20398;-57
2022/05/29 23:54:48;;;;;;;0.50;0.38;;;6.30;99.90;;;;;;21028068;28;20040;-55
